Time;durP1;ratioP1;P1;durP2;ratioP2;P2;SDS_P1;SDS_P2;PMS_P1;PMS_P2;Temp;Humidity;BMP_temperature;BMP_pressure;BME280_temperature;BME280_humidity;BME280_pressure;Samples;Min_cycle;Max_cycle;Signal;HPM_P1;HPM_P2
2024/02/03 00:00:59;;;;;;;4.30;2.40;;;;;;;3.52;89.40;96683.36;109131;1266;22515;-76
2024/02/03 00:03:55;;;;;;;2.50;2.10;;;;;;;3.59;89.57;96677.79;109000;1267;119659;-75
2024/02/03 00:06:27;;;;;;;2.70;1.80;;;;;;;3.65;89.47;96675.85;109139;1272;22533;-76
2024/02/03 00:08:58;;;;;;;4.00;1.90;;;;;;;3.67;89.37;96684.71;109101;1266;22634;-76
2024/02/03 00:11:33;;;;;;;4.10;2.60;;;;;;;3.69;89.60;96680.20;109103;1267;22862;-75
2024/02/03 00:14:07;;;;;;;4.30;2.60;;;;;;;3.73;89.53;96682.98;109118;1266;22577;-76
2024/02/03 00:16:41;;;;;;;2.60;2.20;;;;;;;3.76;89.23;96677.52;109130;1266;22516;-75
2024/02/03 00:19:13;;;;;;;6.10;2.50;;;;;;;3.79;89.36;96674.35;109143;1270;22529;-75
2024/02/03 00:21:44;;;;;;;3.80;2.50;;;;;;;3.81;89.04;96682.15;109170;1272;25052;-76
2024/02/03 00:24:15;;;;;;;3.30;2.00;;;;;;;3.80;89.00;96673.80;109086;1266;23864;-76
2024/02/03 00:26:48;;;;;;;4.30;2.10;;;;;;;3.82;88.80;96672.73;109123;1272;22529;-76
2024/02/03 00:29:24;;;;;;;5.90;2.90;;;;;;;3.84;88.74;96669.98;109116;1272;23308;-76
2024/02/03 00:31:55;;;;;;;7.70;2.80;;;;;;;3.86;88.84;96668.52;109149;1269;22634;-75
2024/02/03 00:34:28;;;;;;;5.10;2.80;;;;;;;3.90;89.00;96663.17;109086;1266;22834;-75
2024/02/03 00:36:59;;;;;;;4.30;2.20;;;;;;;3.94;88.95;96666.29;109109;1272;23391;-76
2024/02/03 00:39:30;;;;;;;4.20;2.20;;;;;;;3.96;88.87;96664.50;109102;1266;25425;-75
2024/02/03 00:42:03;;;;;;;6.10;3.10;;;;;;;3.97;88.77;96660.64;109120;1266;24455;-76
2024/02/03 00:44:39;;;;;;;3.70;2.00;;;;;;;3.99;88.82;96668.97;109081;1272;24507;-75
2024/02/03 00:47:12;;;;;;;3.80;2.10;;;;;;;4.02;88.68;96664.09;109100;1270;22495;-76
2024/02/03 00:49:46;;;;;;;3.30;2.00;;;;;;;4.06;88.65;96661.80;109102;1267;25294;-75
2024/02/03 00:52:17;;;;;;;5.70;2.70;;;;;;;4.08;88.65;96669.52;109139;1269;22530;-76
2024/02/03 00:54:50;;;;;;;5.00;2.90;;;;;;;4.10;88.80;96664.70;109131;1272;22568;-76
2024/02/03 01:00:38;;;;;;;8.00;2.50;;;;;;;4.13;88.65;96677.46;109121;1271;23180;-76
2024/02/03 01:03:09;;;;;;;3.80;2.80;;;;;;;4.12;88.62;96680.07;109080;1273;23756;-75
2024/02/03 01:05:40;;;;;;;7.10;2.90;;;;;;;4.14;88.61;96686.09;109006;1273;22521;-75
2024/02/03 01:08:13;;;;;;;4.20;2.60;;;;;;;4.14;88.66;96691.64;109098;1265;23797;-76
2024/02/03 01:10:44;;;;;;;5.50;3.30;;;;;;;4.14;88.89;96691.44;109106;1272;23531;-75
2024/02/03 01:13:16;;;;;;;6.20;2.40;;;;;;;4.15;88.73;96697.11;109096;1272;25329;-75
2024/02/03 01:15:49;;;;;;;5.70;2.40;;;;;;;4.16;88.92;96694.31;109103;1270;22537;-75
2024/02/03 01:18:20;;;;;;;6.70;3.00;;;;;;;4.15;89.21;96693.60;109145;1251;22513;-75
2024/02/03 01:20:54;;;;;;;6.20;3.10;;;;;;;4.14;89.24;96697.63;109115;1273;23924;-75
2024/02/03 01:23:27;;;;;;;5.00;2.70;;;;;;;4.14;89.19;96691.54;109086;1269;25323;-75
2024/02/03 01:25:58;;;;;;;4.90;2.70;;;;;;;4.14;89.16;96690.73;109120;1273;23416;-75
2024/02/03 01:28:29;;;;;;;7.90;3.10;;;;;;;4.12;89.38;96687.73;109116;1273;22600;-75
2024/02/03 01:31:02;;;;;;;5.90;3.60;;;;;;;4.12;89.89;96681.73;109113;1272;22535;-75
2024/02/03 01:33:43;;;;;;;7.80;3.30;;;;;;;4.13;89.81;96671.58;109042;1273;23217;-75
2024/02/03 01:36:15;;;;;;;4.90;2.80;;;;;;;4.13;90.10;96665.76;109104;1273;22656;-75
2024/02/03 01:38:51;;;;;;;5.90;3.20;;;;;;;4.14;90.24;96679.41;109113;1272;25956;-76
2024/02/03 01:41:25;;;;;;;6.10;2.60;;;;;;;4.13;90.23;96686.17;109106;1266;22614;-76
2024/02/03 01:43:56;;;;;;;5.80;3.50;;;;;;;4.13;90.30;96690.67;109110;1273;22570;-76
2024/02/03 01:46:30;;;;;;;5.60;3.00;;;;;;;4.11;90.43;96692.38;109079;1273;22469;-76
2024/02/03 01:49:02;;;;;;;5.10;3.00;;;;;;;4.08;90.54;96695.61;109113;1265;22586;-75
2024/02/03 01:51:34;;;;;;;6.90;3.70;;;;;;;4.06;90.83;96695.73;109130;1272;22621;-76
2024/02/03 01:54:09;;;;;;;6.80;2.80;;;;;;;4.08;91.67;96691.22;109111;1266;22545;-75
2024/02/03 01:56:45;;;;;;;8.10;4.00;;;;;;;4.07;91.76;96689.30;109106;1273;24266;-76
2024/02/03 01:59:16;;;;;;;5.30;3.90;;;;;;;4.05;92.24;96678.66;109087;1273;25313;-76
2024/02/03 02:01:49;;;;;;;9.70;3.80;;;;;;;4.03;92.26;96673.45;109135;1266;22552;-76
2024/02/03 02:04:20;;;;;;;7.80;4.00;;;;;;;4.03;92.68;96661.06;109110;1273;25393;-76
2024/02/03 02:06:52;;;;;;;8.50;3.60;;;;;;;4.06;93.39;96665.98;109122;1273;22535;-76
2024/02/03 02:09:25;;;;;;;7.90;4.30;;;;;;;4.06;93.38;96654.96;109147;1269;23983;-76
2024/02/03 02:11:58;;;;;;;5.60;3.40;;;;;;;4.09;93.68;96651.45;109105;1272;23696;-76
2024/02/03 02:14:34;;;;;;;6.60;3.80;;;;;;;4.08;93.37;96653.23;109091;1272;22525;-76
2024/02/03 02:17:08;;;;;;;7.40;4.00;;;;;;;4.08;93.17;96649.09;109078;1266;22532;-76
2024/02/03 02:19:41;;;;;;;12.00;4.30;;;;;;;4.10;93.74;96655.98;109093;1272;22655;-76
2024/02/03 02:22:15;;;;;;;8.60;2.90;;;;;;;4.11;93.70;96655.77;109099;1273;23791;-76
2024/02/03 02:24:46;;;;;;;7.50;3.50;;;;;;;4.13;93.69;96651.85;109119;1273;22526;-76
2024/02/03 02:27:20;;;;;;;6.10;3.20;;;;;;;4.15;93.80;96652.72;109080;1272;22465;-76
2024/02/03 02:29:54;;;;;;;4.40;3.60;;;;;;;4.14;93.71;96647.88;109105;1266;25234;-76
2024/02/03 02:32:25;;;;;;;6.90;3.60;;;;;;;4.19;94.52;96628.16;109109;1272;22549;-76
2024/02/03 02:34:56;;;;;;;4.90;3.80;;;;;;;4.24;94.57;96632.84;109138;1272;22585;-76
2024/02/03 02:37:28;;;;;;;8.00;4.10;;;;;;;4.25;94.73;96638.14;109140;1273;22567;-76
2024/02/03 02:40:01;;;;;;;8.90;3.70;;;;;;;4.28;94.64;96631.05;109119;1266;24215;-76
2024/02/03 02:42:33;;;;;;;7.80;4.50;;;;;;;4.26;94.45;96636.38;109101;1272;22544;-76
2024/02/03 02:45:05;;;;;;;7.40;4.10;;;;;;;4.26;94.25;96633.44;109117;1272;22485;-76
2024/02/03 02:47:39;;;;;;;6.50;4.00;;;;;;;4.26;94.22;96637.43;109090;1273;22472;-76
2024/02/03 02:50:11;;;;;;;7.00;3.90;;;;;;;4.29;94.59;96631.59;109091;1271;22538;-76
2024/02/03 02:52:42;;;;;;;5.50;3.10;;;;;;;4.35;94.52;96631.91;109086;1272;22592;-76
2024/02/03 02:55:13;;;;;;;7.20;4.40;;;;;;;4.37;94.53;96632.94;109113;1271;22990;-76
2024/02/03 02:57:47;;;;;;;4.40;3.40;;;;;;;4.35;94.26;96628.15;109090;1266;22523;-76
2024/02/03 03:00:19;;;;;;;6.40;4.10;;;;;;;4.39;94.62;96631.35;109165;1250;22510;-76
2024/02/03 03:02:52;;;;;;;5.70;3.60;;;;;;;4.38;94.31;96632.13;109083;1269;22588;-76
2024/02/03 03:05:24;;;;;;;6.50;4.20;;;;;;;4.35;94.06;96628.48;109131;1269;22661;-76
2024/02/03 03:07:56;;;;;;;7.90;3.90;;;;;;;4.34;94.04;96626.48;109107;1272;25417;-76
2024/02/03 03:10:29;;;;;;;6.20;3.80;;;;;;;4.34;93.87;96633.66;109114;1266;24242;-76
2024/02/03 03:13:02;;;;;;;5.80;3.80;;;;;;;4.35;93.83;96638.50;109141;1266;22526;-76
2024/02/03 03:15:36;;;;;;;6.10;3.90;;;;;;;4.39;94.16;96632.02;109083;1273;22474;-76
2024/02/03 03:18:12;;;;;;;8.60;4.40;;;;;;;4.43;93.88;96631.14;109130;1266;24293;-76
2024/02/03 03:20:46;;;;;;;6.40;3.90;;;;;;;4.43;93.90;96635.73;109114;1272;22569;-76
2024/02/03 03:23:17;;;;;;;4.70;3.10;;;;;;;4.46;93.80;96636.02;109083;1272;25290;-76
2024/02/03 03:25:48;;;;;;;6.80;4.30;;;;;;;4.47;93.84;96637.13;109137;1272;22541;-76
2024/02/03 03:28:19;;;;;;;8.30;4.50;;;;;;;4.49;93.65;96626.13;109120;1269;22589;-76
2024/02/03 03:30:51;;;;;;;6.90;3.50;;;;;;;4.48;93.65;96633.99;109166;1266;22581;-76
2024/02/03 03:33:22;;;;;;;7.40;3.80;;;;;;;4.49;93.58;96637.52;109110;1266;22548;-76
2024/02/03 03:35:53;;;;;;;8.90;3.90;;;;;;;4.50;93.60;96639.07;109120;1267;23314;-76
2024/02/03 03:38:24;;;;;;;12.00;3.10;;;;;;;4.50;93.49;96643.32;109121;1272;22788;-76
2024/02/03 03:40:56;;;;;;;8.40;4.40;;;;;;;4.50;93.51;96642.27;109112;1272;22583;-76
2024/02/03 03:43:28;;;;;;;6.90;3.70;;;;;;;4.53;93.46;96650.27;109126;1265;22521;-76
2024/02/03 03:46:04;;;;;;;7.40;4.60;;;;;;;4.54;93.41;96637.89;109098;1272;22634;-76
2024/02/03 03:48:37;;;;;;;7.20;4.10;;;;;;;4.59;93.60;96642.47;109108;1266;22529;-76
2024/02/03 03:51:08;;;;;;;3.50;2.70;;;;;;;4.60;93.29;96646.74;109121;1272;22611;-76
2024/02/03 03:53:42;;;;;;;6.80;4.60;;;;;;;4.63;93.47;96649.05;109081;1266;23410;-76
2024/02/03 03:56:14;;;;;;;7.40;4.20;;;;;;;4.67;93.47;96650.11;109088;1273;22469;-76
2024/02/03 03:58:48;;;;;;;5.60;4.00;;;;;;;4.67;93.26;96651.23;109134;1266;22594;-76
2024/02/03 04:01:19;;;;;;;8.00;4.40;;;;;;;4.68;93.22;96644.67;109136;1269;25517;-76
2024/02/03 04:03:50;;;;;;;8.50;3.20;;;;;;;4.72;93.25;96634.13;109092;1273;22546;-76
2024/02/03 04:06:21;;;;;;;6.40;2.90;;;;;;;4.79;93.25;96647.84;109132;1273;25550;-76
2024/02/03 04:08:54;;;;;;;6.10;3.30;;;;;;;4.81;93.23;96652.00;109101;1272;22545;-76
2024/02/03 04:11:28;;;;;;;6.10;3.60;;;;;;;4.81;92.98;96657.98;109106;1251;22554;-76
2024/02/03 04:13:59;;;;;;;6.50;3.40;;;;;;;4.80;92.90;96649.48;109080;1272;22548;-76
2024/02/03 04:16:32;;;;;;;10.80;4.10;;;;;;;4.83;93.04;96648.73;109083;1272;22679;-76
2024/02/03 04:19:08;;;;;;;2.60;1.90;;;;;;;4.93;93.01;96653.95;109093;1272;22469;-76
2024/02/03 04:21:44;;;;;;;7.60;3.30;;;;;;;4.99;92.65;96648.69;109096;1273;22547;-76
2024/02/03 04:24:20;;;;;;;5.40;3.10;;;;;;;5.05;92.66;96655.61;109095;1272;25680;-76
2024/02/03 04:26:53;;;;;;;5.90;3.40;;;;;;;5.09;92.35;96644.79;109120;1273;22538;-76
2024/02/03 04:29:24;;;;;;;7.80;3.30;;;;;;;5.10;92.08;96641.77;109118;1271;22516;-76
2024/02/03 04:31:59;;;;;;;6.20;3.70;;;;;;;5.10;92.02;96648.59;109134;1272;22531;-76
2024/02/03 04:34:32;;;;;;;6.60;3.40;;;;;;;5.10;91.94;96651.85;109105;1272;22557;-76
2024/02/03 04:37:06;;;;;;;4.70;2.80;;;;;;;5.12;91.72;96650.35;109100;1272;22543;-76
2024/02/03 04:39:39;;;;;;;5.10;3.30;;;;;;;5.19;92.00;96642.80;109109;1273;24199;-76
2024/02/03 04:42:13;;;;;;;5.20;3.30;;;;;;;5.20;91.61;96641.63;109112;1273;24193;-76
2024/02/03 04:44:48;;;;;;;6.20;3.40;;;;;;;5.22;91.20;96652.33;109094;1272;22528;-76
2024/02/03 04:47:19;;;;;;;3.90;2.30;;;;;;;5.21;91.25;96650.69;109077;1269;22823;-76
2024/02/03 04:49:53;;;;;;;4.50;3.10;;;;;;;5.23;91.30;96654.50;109093;1272;22538;-76
2024/02/03 04:52:28;;;;;;;5.30;2.80;;;;;;;5.27;91.15;96654.38;109063;1266;27816;-76
2024/02/03 04:55:00;;;;;;;3.80;2.60;;;;;;;5.27;90.96;96654.80;109099;1272;25428;-76
2024/02/03 04:57:33;;;;;;;6.10;2.80;;;;;;;5.29;91.16;96654.51;109116;1273;25148;-76
2024/02/03 05:00:05;;;;;;;4.00;2.40;;;;;;;5.35;91.07;96649.60;109075;1266;22671;-76
2024/02/03 05:02:39;;;;;;;4.90;2.40;;;;;;;5.41;91.01;96663.40;109106;1272;23625;-76
2024/02/03 05:05:13;;;;;;;4.00;2.00;;;;;;;5.41;90.91;96654.14;109107;1263;22525;-76
2024/02/03 05:07:48;;;;;;;3.40;2.30;;;;;;;5.41;90.89;96648.61;109105;1273;22497;-76
2024/02/03 05:10:20;;;;;;;3.50;2.10;;;;;;;5.45;90.96;96670.65;109165;1273;22526;-76
2024/02/03 05:12:53;;;;;;;5.10;2.70;;;;;;;5.46;90.94;96660.83;109101;1272;23512;-76
2024/02/03 05:15:27;;;;;;;4.50;2.60;;;;;;;5.53;90.70;96664.91;109132;1265;24360;-76
2024/02/03 05:18:03;;;;;;;3.10;2.30;;;;;;;5.54;90.53;96659.89;109127;1269;22465;-76
2024/02/03 05:20:36;;;;;;;4.70;2.00;;;;;;;5.54;90.44;96664.71;109080;1266;22572;-76
2024/02/03 05:23:10;;;;;;;2.40;2.00;;;;;;;5.54;90.33;96665.56;109071;1270;28276;-76
2024/02/03 05:25:45;;;;;;;6.00;2.80;;;;;;;5.55;90.39;96664.25;109112;1273;22593;-76
2024/02/03 05:28:16;;;;;;;2.40;1.50;;;;;;;5.59;90.33;96664.09;109098;1273;22930;-76
2024/02/03 05:30:46;;;;;;;3.40;1.90;;;;;;;5.60;90.11;96673.04;109120;1269;22561;-76
2024/02/03 05:33:20;;;;;;;5.80;2.40;;;;;;;5.62;90.11;96658.60;109085;1273;22652;-76
2024/02/03 05:35:51;;;;;;;3.90;1.90;;;;;;;5.63;90.01;96663.84;109093;1272;24189;-76
2024/02/03 05:38:22;;;;;;;4.10;2.70;;;;;;;5.63;89.98;96653.61;109101;1267;22611;-76
2024/02/03 05:40:56;;;;;;;2.40;1.90;;;;;;;5.65;89.97;96666.44;109139;1273;22598;-76
2024/02/03 05:43:27;;;;;;;2.40;1.70;;;;;;;5.64;89.92;96663.38;109063;1272;26080;-76
2024/02/03 05:46:00;;;;;;;2.80;2.10;;;;;;;5.64;90.07;96661.84;109117;1267;22555;-76
2024/02/03 05:48:32;;;;;;;3.10;1.90;;;;;;;5.65;90.00;96664.23;109130;1273;22479;-76
2024/02/03 05:51:07;;;;;;;6.20;3.00;;;;;;;5.65;89.87;96672.95;109090;1273;24164;-76
2024/02/03 05:53:39;;;;;;;4.10;2.00;;;;;;;5.65;90.11;96673.27;109078;1273;22483;-76
2024/02/03 05:56:17;;;;;;;3.40;2.20;;;;;;;5.65;90.03;96676.85;109068;1269;22522;-76
2024/02/03 05:58:48;;;;;;;7.10;2.80;;;;;;;5.66;89.99;96681.02;109059;1266;22552;-76
2024/02/03 06:01:24;;;;;;;4.70;2.30;;;;;;;5.66;89.99;96673.34;109079;1256;22611;-76
2024/02/03 06:03:57;;;;;;;4.70;3.00;;;;;;;5.66;89.99;96672.34;109096;1273;30616;-76
2024/02/03 06:06:29;;;;;;;6.00;3.20;;;;;;;5.70;89.93;96673.27;109100;1273;22558;-76
2024/02/03 06:09:06;;;;;;;3.80;1.90;;;;;;;5.74;89.66;96675.52;109085;1265;22559;-76
2024/02/03 06:11:43;;;;;;;4.30;2.70;;;;;;;5.73;89.51;96677.88;109134;1262;25425;-76
2024/02/03 06:14:14;;;;;;;2.90;1.90;;;;;;;5.73;89.38;96672.61;109085;1273;24150;-76
2024/02/03 06:16:48;;;;;;;4.70;2.90;;;;;;;5.75;89.36;96666.73;109088;1267;22520;-76
2024/02/03 06:19:18;;;;;;;4.90;2.50;;;;;;;5.76;89.30;96675.38;109114;1269;22619;-76
2024/02/03 06:21:49;;;;;;;4.10;2.10;;;;;;;5.77;89.22;96677.98;109118;1250;22528;-76
2024/02/03 06:24:23;;;;;;;4.20;2.20;;;;;;;5.78;89.11;96688.41;109104;1273;22657;-76
2024/02/03 06:26:56;;;;;;;3.40;1.90;;;;;;;5.77;89.16;96692.77;109123;1273;23846;-76
2024/02/03 06:29:29;;;;;;;3.70;2.10;;;;;;;5.79;89.16;96699.43;109177;1266;22604;-75
2024/02/03 06:32:04;;;;;;;3.10;1.90;;;;;;;5.83;88.90;96711.98;109073;1273;24292;-76
2024/02/03 06:34:38;;;;;;;4.20;2.00;;;;;;;5.82;88.79;96701.31;109083;1273;22791;-75
2024/02/03 06:37:09;;;;;;;3.00;1.60;;;;;;;5.87;88.63;96705.30;109089;1273;22521;-75
2024/02/03 06:39:45;;;;;;;4.80;1.90;;;;;;;5.91;88.47;96701.13;109071;1273;22530;-76
2024/02/03 06:42:21;;;;;;;4.10;2.00;;;;;;;5.92;88.34;96701.88;109101;1269;24113;-76
2024/02/03 06:44:55;;;;;;;3.20;2.10;;;;;;;5.93;88.32;96705.20;109088;1272;22530;-76
2024/02/03 06:47:28;;;;;;;3.10;2.10;;;;;;;5.94;88.34;96704.16;109104;1271;22542;-76
2024/02/03 06:50:06;;;;;;;5.10;2.10;;;;;;;5.97;88.14;96701.66;109142;1269;22595;-76
2024/02/03 06:52:46;;;;;;;3.10;1.90;;;;;;;6.00;88.19;96699.95;109048;1273;22612;-76
2024/02/03 06:55:19;;;;;;;4.80;1.90;;;;;;;6.02;88.05;96696.97;109120;1270;25974;-76
2024/02/03 06:57:50;;;;;;;3.60;2.50;;;;;;;6.03;87.98;96703.13;109095;1273;22529;-76
2024/02/03 07:00:23;;;;;;;2.80;1.90;;;;;;;6.06;87.72;96700.20;109159;1273;22595;-76
2024/02/03 07:02:56;;;;;;;3.40;1.90;;;;;;;6.08;87.71;96701.47;109063;1273;22518;-76
2024/02/03 07:05:28;;;;;;;4.80;1.40;;;;;;;6.12;87.67;96698.35;109104;1273;24195;-76
2024/02/03 07:08:04;;;;;;;6.30;2.10;;;;;;;6.15;87.39;96714.01;109109;1269;22518;-76
2024/02/03 07:10:35;;;;;;;2.30;2.10;;;;;;;6.16;87.39;96697.07;109112;1269;22475;-76
2024/02/03 07:13:12;;;;;;;3.00;1.40;;;;;;;6.18;87.35;96707.66;109066;1273;22511;-76
2024/02/03 07:15:44;;;;;;;4.50;2.20;;;;;;;6.17;87.32;96703.60;109103;1273;22467;-76
2024/02/03 07:18:16;;;;;;;2.20;1.60;;;;;;;6.20;87.15;96703.44;109137;1273;22527;-76
2024/02/03 07:20:50;;;;;;;2.30;1.50;;;;;;;6.22;87.19;96706.41;109084;1272;22554;-76
2024/02/03 07:23:22;;;;;;;2.60;1.90;;;;;;;6.29;86.57;96700.94;109108;1269;22581;-76
2024/02/03 07:25:56;;;;;;;3.90;1.80;;;;;;;6.33;86.51;96705.94;109139;1272;23328;-76
2024/02/03 07:28:27;;;;;;;2.50;2.10;;;;;;;6.34;86.33;96711.11;109151;1273;22525;-76
2024/02/03 07:31:04;;;;;;;2.60;1.60;;;;;;;6.38;86.10;96715.89;109100;1262;22535;-76
2024/02/03 07:33:38;;;;;;;4.10;2.30;;;;;;;6.40;85.92;96714.06;109075;1272;22513;-75
2024/02/03 07:36:13;;;;;;;4.00;2.20;;;;;;;6.45;85.57;96710.57;109127;1265;22722;-76
2024/02/03 07:38:44;;;;;;;2.80;1.30;;;;;;;6.48;84.97;96716.15;109098;1266;24180;-76
2024/02/03 07:41:15;;;;;;;2.70;1.80;;;;;;;6.50;84.81;96711.85;109069;1272;22535;-76
2024/02/03 07:43:49;;;;;;;3.30;1.80;;;;;;;6.52;84.95;96703.38;109076;1272;22567;-76
2024/02/03 07:46:25;;;;;;;3.50;2.00;;;;;;;6.54;84.78;96707.56;109123;1272;24291;-76
2024/02/03 07:48:56;;;;;;;3.60;1.80;;;;;;;6.56;84.60;96702.09;109086;1272;22764;-76
2024/02/03 07:51:30;;;;;;;3.00;2.40;;;;;;;6.59;84.32;96704.38;109114;1272;22548;-76
2024/02/03 07:54:13;;;;;;;3.00;1.50;;;;;;;6.62;84.07;96705.41;109109;1269;22514;-76
2024/02/03 07:56:46;;;;;;;2.60;1.80;;;;;;;6.63;84.14;96715.65;109131;1265;22823;-76
2024/02/03 07:59:21;;;;;;;3.20;2.20;;;;;;;6.63;84.02;96710.55;109185;1266;22476;-75
2024/02/03 08:01:52;;;;;;;2.70;1.50;;;;;;;6.65;84.09;96712.98;109155;1272;22517;-75
2024/02/03 08:04:23;;;;;;;3.90;2.10;;;;;;;6.67;84.18;96710.20;109154;1273;22536;-75
2024/02/03 08:06:54;;;;;;;3.60;2.20;;;;;;;6.68;84.23;96711.58;109138;1265;22589;-75
2024/02/03 08:09:25;;;;;;;5.00;2.70;;;;;;;6.70;83.91;96701.53;109101;1266;22954;-75
2024/02/03 08:11:58;;;;;;;3.00;2.30;;;;;;;6.73;83.87;96707.77;109120;1269;24892;-75
2024/02/03 08:14:29;;;;;;;4.90;3.10;;;;;;;6.75;83.71;96710.73;109087;1269;24218;-75
2024/02/03 08:17:06;;;;;;;4.70;3.00;;;;;;;6.79;83.42;96702.41;109115;1272;22532;-75
2024/02/03 08:19:45;;;;;;;6.60;3.10;;;;;;;6.82;83.20;96705.16;109137;1272;22643;-75
2024/02/03 08:22:17;;;;;;;5.60;2.60;;;;;;;6.85;82.93;96698.54;109091;1272;22543;-75
2024/02/03 08:24:51;;;;;;;4.50;2.50;;;;;;;6.87;83.04;96712.41;109138;1272;22994;-75
2024/02/03 08:27:22;;;;;;;6.30;3.10;;;;;;;6.88;82.98;96701.66;109100;1266;24189;-75
2024/02/03 08:29:54;;;;;;;7.30;3.70;;;;;;;6.91;83.04;96718.67;109105;1272;22509;-75
2024/02/03 08:32:27;;;;;;;4.10;3.20;;;;;;;6.92;83.27;96706.15;109100;1272;22521;-75
2024/02/03 08:35:00;;;;;;;4.50;3.00;;;;;;;6.93;83.11;96702.20;109156;1272;22567;-75
2024/02/03 08:37:32;;;;;;;5.10;2.90;;;;;;;6.95;83.20;96707.11;109125;1272;22553;-75
2024/02/03 08:40:09;;;;;;;11.10;6.40;;;;;;;6.99;83.14;96708.77;109083;1272;22559;-75
2024/02/03 08:42:43;;;;;;;3.20;2.40;;;;;;;7.04;83.13;96706.34;109117;1269;24216;-75
2024/02/03 08:45:15;;;;;;;5.30;3.50;;;;;;;7.05;83.11;96703.66;109122;1269;23334;-76
2024/02/03 08:47:46;;;;;;;4.10;2.40;;;;;;;7.06;83.25;96715.27;109075;1269;22546;-75
2024/02/03 08:50:17;;;;;;;5.30;2.90;;;;;;;7.07;83.15;96708.31;109076;1273;25237;-76
2024/02/03 08:52:50;;;;;;;4.20;2.30;;;;;;;7.09;83.05;96713.44;109092;1273;22572;-75
2024/02/03 08:55:21;;;;;;;4.90;2.80;;;;;;;7.09;83.20;96716.65;109140;1269;22483;-75
2024/02/03 08:57:57;;;;;;;4.00;2.70;;;;;;;7.11;83.41;96713.02;109120;1272;22544;-75
2024/02/03 09:00:28;;;;;;;5.70;3.00;;;;;;;7.13;83.54;96710.92;109093;1271;24185;-75
2024/02/03 09:03:00;;;;;;;4.10;2.40;;;;;;;7.13;83.73;96707.29;109082;1272;22564;-75
2024/02/03 09:05:34;;;;;;;5.20;3.00;;;;;;;7.13;83.92;96709.35;109112;1266;22510;-76
2024/02/03 09:08:06;;;;;;;2.60;1.70;;;;;;;7.13;83.97;96708.98;109110;1272;22548;-75
2024/02/03 09:10:39;;;;;;;4.00;2.10;;;;;;;7.12;84.18;96711.72;109126;1272;22568;-76
2024/02/03 09:13:13;;;;;;;2.30;1.60;;;;;;;7.11;84.51;96700.85;109085;1272;24357;-76
2024/02/03 09:15:47;;;;;;;2.60;1.90;;;;;;;7.10;84.70;96714.27;109128;1266;22518;-75
2024/02/03 09:18:18;;;;;;;4.20;2.20;;;;;;;7.12;84.84;96709.81;109116;1272;22510;-75
2024/02/03 09:20:51;;;;;;;4.50;2.90;;;;;;;7.14;84.89;96715.52;109116;1272;22525;-75
2024/02/03 09:23:26;;;;;;;3.30;2.30;;;;;;;7.16;85.19;96708.31;109101;1266;24241;-76
2024/02/03 09:25:58;;;;;;;4.20;2.10;;;;;;;7.15;85.52;96709.30;109102;1266;22824;-75
2024/02/03 09:28:34;;;;;;;1.90;1.40;;;;;;;7.13;85.36;96701.59;109109;1272;22644;-76
2024/02/03 09:31:06;;;;;;;4.60;2.70;;;;;;;7.13;85.53;96701.86;109106;1266;25146;-75
2024/02/03 09:33:39;;;;;;;5.80;2.90;;;;;;;7.15;85.52;96697.91;109070;1270;22629;-75
2024/02/03 09:36:20;;;;;;;6.60;2.30;;;;;;;7.19;85.49;96698.02;109093;1273;24212;-75
2024/02/03 09:38:51;;;;;;;4.20;2.60;;;;;;;7.25;85.43;96695.34;109121;1265;23363;-76
2024/02/03 09:41:25;;;;;;;3.60;2.40;;;;;;;7.31;85.37;96692.36;109098;1266;22526;-75
2024/02/03 09:44:02;;;;;;;3.50;1.80;;;;;;;7.34;85.02;96688.77;109147;1272;22620;-76
2024/02/03 09:46:33;;;;;;;5.70;2.60;;;;;;;7.36;84.79;96694.73;109117;1273;22521;-76
2024/02/03 09:49:06;;;;;;;5.80;1.70;;;;;;;7.38;84.84;96684.30;109083;1273;23749;-76
2024/02/03 09:51:42;;;;;;;4.20;2.30;;;;;;;7.39;84.47;96682.46;109143;1273;22660;-76
2024/02/03 09:54:16;;;;;;;3.80;2.10;;;;;;;7.43;84.58;96673.86;109097;1273;22542;-76
2024/02/03 09:56:53;;;;;;;3.20;2.00;;;;;;;7.44;84.26;96676.19;109113;1273;22528;-76
2024/02/03 09:59:26;;;;;;;3.40;1.90;;;;;;;7.46;84.15;96676.10;109132;1273;23465;-75
2024/02/03 10:02:03;;;;;;;2.50;1.60;;;;;;;7.49;84.32;96675.08;109128;1269;22518;-76
2024/02/03 10:04:50;;;;;;;3.10;1.20;;;;;;;7.52;84.30;96671.39;109102;1269;22536;-76
2024/02/03 10:07:23;;;;;;;3.20;2.20;;;;;;;7.52;84.17;96666.96;109140;1273;23693;-76
2024/02/03 10:10:06;;;;;;;2.30;1.50;;;;;;;7.51;83.97;96677.67;109113;1273;22576;-75
2024/02/03 10:12:37;;;;;;;2.10;1.50;;;;;;;7.50;83.91;96678.20;109080;1251;22527;-76
2024/02/03 10:15:18;;;;;;;3.10;1.70;;;;;;;7.49;83.94;96669.00;109125;1273;24186;-76
2024/02/03 10:18:01;;;;;;;2.70;2.20;;;;;;;7.47;83.97;96681.88;109119;1269;22529;-75
2024/02/03 10:20:35;;;;;;;5.50;2.30;;;;;;;7.47;84.04;96669.27;109129;1272;25456;-75
2024/02/03 10:23:12;;;;;;;2.30;1.50;;;;;;;7.47;84.17;96671.21;109086;1270;22926;-75
2024/02/03 10:25:47;;;;;;;4.10;2.20;;;;;;;7.51;84.23;96674.23;109117;1269;22503;-76
2024/02/03 10:28:20;;;;;;;2.90;1.90;;;;;;;7.54;84.23;96669.23;109102;1267;25926;-75
2024/02/03 10:30:56;;;;;;;2.80;2.30;;;;;;;7.56;83.97;96668.77;109118;1273;22539;-76
2024/02/03 10:33:30;;;;;;;2.70;1.80;;;;;;;7.57;84.03;96670.71;109086;1273;25933;-75
2024/02/03 10:36:03;;;;;;;4.50;2.10;;;;;;;7.57;83.76;96664.23;109154;1273;22519;-75
2024/02/03 10:38:37;;;;;;;3.50;1.60;;;;;;;7.62;83.73;96671.08;109135;1266;22524;-76
2024/02/03 10:41:12;;;;;;;3.30;2.00;;;;;;;7.68;83.77;96676.10;109185;1273;22524;-75
2024/02/03 10:43:46;;;;;;;4.10;2.30;;;;;;;7.70;82.95;96674.21;109086;1273;22678;-76
2024/02/03 10:46:22;;;;;;;3.80;2.30;;;;;;;7.70;82.68;96672.83;109086;1269;25460;-75
2024/02/03 10:48:55;;;;;;;3.40;1.90;;;;;;;7.67;82.71;96686.66;109110;1272;22528;-76
2024/02/03 10:51:32;;;;;;;3.10;1.90;;;;;;;7.64;82.55;96686.39;109093;1272;24173;-75
2024/02/03 10:54:10;;;;;;;5.30;2.80;;;;;;;7.60;82.60;96686.05;109095;1250;22537;-75
2024/02/03 10:56:42;;;;;;;3.80;2.50;;;;;;;7.56;82.69;96685.65;109139;1269;23904;-75
2024/02/03 10:59:23;;;;;;;7.10;2.10;;;;;;;7.52;82.69;96684.37;109084;1267;22529;-75
2024/02/03 11:01:55;;;;;;;4.40;2.90;;;;;;;7.49;82.82;96683.63;109151;1272;22513;-76
2024/02/03 11:04:42;;;;;;;6.00;3.00;;;;;;;7.50;82.75;96681.77;109084;1272;22550;-76
2024/02/03 11:07:27;;;;;;;6.20;3.00;;;;;;;7.51;82.72;96668.59;109085;1272;22570;-76
2024/02/03 11:10:03;;;;;;;4.90;3.00;;;;;;;7.46;82.87;96673.42;109098;1272;22517;-76
2024/02/03 11:12:37;;;;;;;3.60;2.90;;;;;;;7.45;83.08;96662.12;109131;1272;22527;-76
2024/02/03 11:15:14;;;;;;;7.10;2.60;;;;;;;7.47;83.08;96658.23;109110;1272;22539;-76
2024/02/03 11:17:46;;;;;;;5.40;2.90;;;;;;;7.50;83.02;96654.19;109111;1272;22536;-76
2024/02/03 11:20:32;;;;;;;6.40;3.60;;;;;;;7.50;83.01;96653.14;109124;1272;22527;-76
2024/02/03 11:23:11;;;;;;;5.40;3.20;;;;;;;7.54;83.28;96648.92;109102;1266;22633;-76
2024/02/03 11:25:46;;;;;;;8.90;5.10;;;;;;;7.58;83.17;96652.05;109123;1269;22559;-76
2024/02/03 11:28:19;;;;;;;5.00;3.10;;;;;;;7.57;82.96;96654.89;109098;1272;24193;-76
2024/02/03 11:31:01;;;;;;;5.60;2.70;;;;;;;7.55;82.92;96665.34;109104;1269;22521;-76
2024/02/03 11:33:45;;;;;;;4.60;2.60;;;;;;;7.55;82.90;96662.27;109112;1269;22549;-76
2024/02/03 11:36:19;;;;;;;4.60;2.80;;;;;;;7.58;83.04;96660.28;109087;1272;22584;-76
2024/02/03 11:38:55;;;;;;;7.00;2.90;;;;;;;7.55;82.93;96659.21;109136;1269;25478;-76
2024/02/03 11:41:31;;;;;;;4.70;2.50;;;;;;;7.55;82.91;96649.02;109122;1269;23976;-76
2024/02/03 11:44:05;;;;;;;4.70;2.70;;;;;;;7.57;82.93;96657.69;109116;1266;23701;-75
2024/02/03 11:46:39;;;;;;;7.40;3.20;;;;;;;7.59;82.93;96663.45;109116;1272;22528;-76
2024/02/03 11:49:12;;;;;;;4.10;2.60;;;;;;;7.57;83.03;96651.14;109130;1272;22525;-75
2024/02/03 11:51:45;;;;;;;4.90;2.40;;;;;;;7.57;83.04;96656.16;109097;1266;22525;-75
2024/02/03 11:54:17;;;;;;;2.80;1.80;;;;;;;7.56;83.06;96642.54;109097;1270;22537;-75
2024/02/03 11:56:48;;;;;;;4.80;2.20;;;;;;;7.57;83.18;96643.48;109119;1272;22528;-75
2024/02/03 11:59:31;;;;;;;3.20;1.80;;;;;;;7.58;83.26;96636.27;109093;1269;22550;-75
2024/02/03 12:02:06;;;;;;;2.30;1.60;;;;;;;7.60;83.24;96630.06;109034;1272;135822;-75
2024/02/03 12:04:39;;;;;;;3.70;2.20;;;;;;;7.62;83.34;96625.48;109080;1272;25345;-75
2024/02/03 12:07:18;;;;;;;4.10;1.70;;;;;;;7.65;83.35;96627.70;109087;1266;24212;-75